Time;durP1;ratioP1;P1;durP2;ratioP2;P2;SDS_P1;SDS_P2;PMS_P1;PMS_P2;Temp;Humidity;BMP_temperature;BMP_pressure;BME280_temperature;BME280_humidity;BME280_pressure;Samples;Min_cycle;Max_cycle;Signal;HPM_P1;HPM_P2
2023/02/15 00:01:07;;;;;;;;;;;;;;;1.92;54.03;94010.00;2057904;69;20113;-76
2023/02/15 00:03:33;;;;;;;;;;;;;;;1.80;54.78;93994.75;2057453;69;20061;-76
2023/02/15 00:05:59;;;;;;;;;;;;;;;1.63;55.85;94003.25;2057705;69;20046;-76
2023/02/15 00:08:25;;;;;;;;;;;;;;;1.69;54.91;94001.16;2057456;69;20090;-76
2023/02/15 00:10:51;;;;;;;;;;;;;;;1.74;54.52;93998.34;2058014;69;20057;-76
2023/02/15 00:13:17;;;;;;;;;;;;;;;1.85;54.37;93994.69;2057945;69;20512;-77
2023/02/15 00:15:42;;;;;;;;;;;;;;;1.78;53.73;93993.22;2057900;69;20057;-76
2023/02/15 00:18:08;;;;;;;;;;;;;;;1.45;55.39;93994.34;2057451;69;20054;-77
2023/02/15 00:20:33;;;;;;;;;;;;;;;1.55;55.15;93997.53;2057894;69;20060;-76
2023/02/15 00:22:58;;;;;;;;;;;;;;;1.80;54.23;93991.97;2058501;69;20050;-77
2023/02/15 00:25:24;;;;;;;;;;;;;;;1.89;54.05;93997.16;2058419;69;20113;-77
2023/02/15 00:27:49;;;;;;;;;;;;;;;1.80;54.58;93991.97;2058330;69;20042;-79
2023/02/15 00:30:15;;;;;;;;;;;;;;;1.55;54.49;93986.41;2057362;69;20173;-77
2023/02/15 00:32:40;;;;;;;;;;;;;;;1.74;54.69;93987.25;2056488;69;20086;-78
2023/02/15 00:35:06;;;;;;;;;;;;;;;1.73;55.10;93990.50;2055824;69;20062;-78
2023/02/15 00:37:32;;;;;;;;;;;;;;;1.67;54.47;93993.38;2055543;69;20050;-74
2023/02/15 00:39:58;;;;;;;;;;;;;;;1.64;55.10;93988.84;2056497;69;20176;-76
2023/02/15 00:42:23;;;;;;;;;;;;;;;1.62;54.14;93990.66;2053483;69;20189;-79
2023/02/15 00:44:51;;;;;;;;;;;;;;;1.58;54.66;93990.94;2057917;69;20087;-77
2023/02/15 00:47:16;;;;;;;;;;;;;;;1.63;55.38;93979.03;2057836;69;20061;-79
2023/02/15 00:49:42;;;;;;;;;;;;;;;1.58;54.93;93977.06;2057420;69;20115;-77
2023/02/15 00:52:07;;;;;;;;;;;;;;;1.53;55.50;93973.06;2056872;69;20050;-78
2023/02/15 00:54:34;;;;;;;;;;;;;;;1.67;54.51;93979.47;2057682;69;20058;-78
2023/02/15 00:57:00;;;;;;;;;;;;;;;1.72;53.88;93975.13;2057611;69;20426;-77
2023/02/15 00:59:25;;;;;;;;;;;;;;;1.80;54.52;93973.28;2055081;69;20090;-77
2023/02/15 01:01:50;;;;;;;;;;;;;;;1.59;55.42;93977.81;2057355;69;20145;-78
2023/02/15 01:04:18;;;;;;;;;;;;;;;1.51;55.15;93985.97;2057716;69;20119;-78
2023/02/15 01:06:53;;;;;;;;;;;;;;;1.36;55.63;93985.63;2058554;69;20467;-77
2023/02/15 01:09:19;;;;;;;;;;;;;;;1.48;55.74;93978.69;2055555;69;20120;-77
2023/02/15 01:11:44;;;;;;;;;;;;;;;1.36;55.28;93975.25;2055357;69;20061;-78
2023/02/15 01:14:10;;;;;;;;;;;;;;;1.38;54.32;93972.72;2056565;69;20078;-78
2023/02/15 01:16:40;;;;;;;;;;;;;;;1.51;53.94;93978.41;2057577;69;20065;-78
2023/02/15 01:19:06;;;;;;;;;;;;;;;1.50;54.30;93979.66;2056336;69;20139;-77
2023/02/15 01:21:34;;;;;;;;;;;;;;;1.34;54.60;93968.75;2057593;69;20165;-76
2023/02/15 01:24:01;;;;;;;;;;;;;;;1.37;54.62;93962.88;2057106;69;20077;-77
2023/02/15 01:26:27;;;;;;;;;;;;;;;1.19;55.30;93971.91;2057471;69;20058;-78
2023/02/15 01:28:52;;;;;;;;;;;;;;;1.24;54.99;93968.34;2057300;69;20057;-77
2023/02/15 01:31:20;;;;;;;;;;;;;;;1.26;54.88;93961.00;2056886;69;20046;-77
2023/02/15 01:33:47;;;;;;;;;;;;;;;1.47;54.95;93963.31;2055928;69;20185;-76
2023/02/15 01:36:13;;;;;;;;;;;;;;;1.32;55.39;93952.59;2057606;69;20057;-76
2023/02/15 01:38:39;;;;;;;;;;;;;;;1.37;55.08;93960.13;2057534;69;20050;-74
2023/02/15 01:41:22;;;;;;;;;;;;;;;1.33;54.91;93956.91;2057846;69;20485;-77
2023/02/15 01:43:49;;;;;;;;;;;;;;;1.48;54.04;93948.16;2055603;69;20076;-73
2023/02/15 01:46:19;;;;;;;;;;;;;;;1.25;55.37;93947.66;2056349;69;20398;-77
2023/02/15 01:48:47;;;;;;;;;;;;;;;1.44;54.85;93948.44;2057105;69;20112;-77
2023/02/15 01:51:15;;;;;;;;;;;;;;;1.32;54.41;93949.06;2058260;69;20142;-75
2023/02/15 01:53:43;;;;;;;;;;;;;;;1.72;53.44;93937.00;2057383;69;20058;-77
2023/02/15 01:56:11;;;;;;;;;;;;;;;1.59;53.37;93941.72;2056020;69;20050;-76
2023/02/15 01:58:37;;;;;;;;;;;;;;;1.53;53.35;93937.00;2056170;69;20153;-76
2023/02/15 02:01:04;;;;;;;;;;;;;;;1.48;54.00;93945.38;2056686;69;20058;-77
2023/02/15 02:03:36;;;;;;;;;;;;;;;1.49;53.30;93933.75;2057690;69;20053;-74
2023/02/15 02:06:03;;;;;;;;;;;;;;;1.58;53.92;93927.09;2056404;69;20069;-77
2023/02/15 02:08:29;;;;;;;;;;;;;;;1.44;53.56;93934.56;2056493;69;20128;-76
2023/02/15 02:10:55;;;;;;;;;;;;;;;1.13;54.72;93929.59;2057786;69;20078;-77
2023/02/15 02:13:20;;;;;;;;;;;;;;;1.41;53.88;93932.81;2057044;69;20050;-76
2023/02/15 02:16:09;;;;;;;;;;;;;;;1.49;53.35;93936.53;2057176;69;20518;-78
2023/02/15 02:18:38;;;;;;;;;;;;;;;1.48;53.96;93928.72;2055638;69;20086;-76
2023/02/15 02:21:13;;;;;;;;;;;;;;;1.45;54.71;93918.66;2057337;69;20062;-77
2023/02/15 02:23:57;;;;;;;;;;;;;;;1.48;53.64;93917.63;2057463;69;20052;-77
2023/02/15 02:26:44;;;;;;;;;;;;;;;1.56;54.10;93917.78;2052292;69;20223;-76
2023/02/15 02:29:29;;;;;;;;;;;;;;;1.34;53.52;93907.72;2051063;69;20098;-77
2023/02/15 02:32:04;;;;;;;;;;;;;;;1.33;54.17;93912.50;2057066;69;20394;-77
2023/02/15 02:34:35;;;;;;;;;;;;;;;1.46;53.58;93906.28;2056954;69;20054;-76
2023/02/15 02:37:23;;;;;;;;;;;;;;;1.23;53.95;93903.75;2057531;69;20502;-77
2023/02/15 02:40:04;;;;;;;;;;;;;;;1.34;54.15;93902.91;2057273;69;20549;-76
2023/02/15 02:42:38;;;;;;;;;;;;;;;1.39;54.29;93898.56;2057275;69;20058;-76
2023/02/15 02:45:13;;;;;;;;;;;;;;;1.45;53.57;93899.25;2055747;69;20050;-76
2023/02/15 02:47:50;;;;;;;;;;;;;;;1.43;53.04;93905.31;2057685;69;20486;-75
2023/02/15 02:50:21;;;;;;;;;;;;;;;1.43;52.95;93907.34;2056701;69;20034;-76
2023/02/15 02:52:48;;;;;;;;;;;;;;;1.34;53.81;93905.69;2057258;69;20065;-76
2023/02/15 02:55:27;;;;;;;;;;;;;;;1.42;53.66;93897.50;2058073;69;20057;-77
2023/02/15 02:57:56;;;;;;;;;;;;;;;1.54;52.99;93898.88;2057855;69;20157;-77
2023/02/15 03:00:23;;;;;;;;;;;;;;;1.51;52.89;93894.38;2056329;69;20159;-77
2023/02/15 03:02:52;;;;;;;;;;;;;;;1.46;53.43;93895.94;2057252;69;20038;-75
2023/02/15 03:05:21;;;;;;;;;;;;;;;1.26;53.58;93888.84;2057705;69;20486;-75
2023/02/15 03:07:48;;;;;;;;;;;;;;;1.20;54.04;93892.97;2058001;69;20103;-76
2023/02/15 03:10:14;;;;;;;;;;;;;;;1.17;54.17;93885.69;2057617;69;20429;-77
2023/02/15 03:12:40;;;;;;;;;;;;;;;1.04;53.97;93886.31;2057726;69;20498;-76
2023/02/15 03:15:10;;;;;;;;;;;;;;;1.23;53.72;93891.91;2057424;69;20057;-76
2023/02/15 03:17:40;;;;;;;;;;;;;;;1.02;54.55;93870.22;2054370;69;20502;-76
2023/02/15 03:20:13;;;;;;;;;;;;;;;1.23;53.55;93883.59;2054311;70;20130;-75
2023/02/15 03:22:50;;;;;;;;;;;;;;;1.39;52.87;93884.69;2054294;69;20046;-75
2023/02/15 03:25:21;;;;;;;;;;;;;;;1.23;53.96;93887.13;2056491;69;20560;-77
2023/02/15 03:27:49;;;;;;;;;;;;;;;1.23;53.79;93889.88;2057161;69;20093;-76
2023/02/15 03:30:18;;;;;;;;;;;;;;;1.24;54.06;93888.63;2056646;69;20058;-76
2023/02/15 03:32:44;;;;;;;;;;;;;;;1.31;54.19;93892.09;2057830;69;20197;-76
2023/02/15 03:35:10;;;;;;;;;;;;;;;1.18;53.97;93887.19;2057547;69;20470;-78
2023/02/15 03:37:36;;;;;;;;;;;;;;;1.25;53.16;93886.63;2057936;69;20070;-77
2023/02/15 03:43:05;;;;;;;;;;;;;;;1.29;53.47;93884.28;2057893;69;20453;-77
2023/02/15 03:45:32;;;;;;;;;;;;;;;1.21;54.05;93886.91;2056973;69;20050;-78
2023/02/15 03:48:00;;;;;;;;;;;;;;;1.35;53.73;93893.31;2057134;69;20065;-77
2023/02/15 03:53:22;;;;;;;;;;;;;;;1.15;53.62;93891.00;2057450;69;20500;-78
2023/02/15 03:55:48;;;;;;;;;;;;;;;0.86;54.84;93884.22;2057635;69;20061;-77
2023/02/15 04:03:52;;;;;;;;;;;;;;;1.07;54.17;93890.09;2055685;69;20054;-77
2023/02/15 04:06:17;;;;;;;;;;;;;;;0.98;53.74;93889.16;2057893;69;20116;-79
2023/02/15 04:11:27;;;;;;;;;;;;;;;1.07;53.43;93888.06;2057605;69;20050;-77
2023/02/15 04:13:56;;;;;;;;;;;;;;;1.00;53.21;93886.59;2057377;69;20046;-75
2023/02/15 04:16:25;;;;;;;;;;;;;;;0.87;54.36;93888.50;2057795;69;20122;-75
2023/02/15 04:27:04;;;;;;;;;;;;;;;0.75;55.12;93885.09;2057132;69;20786;-77
2023/02/15 04:29:29;;;;;;;;;;;;;;;0.94;54.14;93890.72;2057282;69;20425;-77
2023/02/15 04:31:59;;;;;;;;;;;;;;;0.60;54.68;93891.03;2057939;69;20101;-74
2023/02/15 04:34:25;;;;;;;;;;;;;;;0.77;54.75;93888.09;2057391;69;20047;-77
2023/02/15 04:36:50;;;;;;;;;;;;;;;0.83;54.55;93896.38;2057749;69;20478;-76
2023/02/15 04:39:16;;;;;;;;;;;;;;;0.69;55.18;93890.69;2057717;69;20073;-77
2023/02/15 04:41:42;;;;;;;;;;;;;;;0.86;54.73;93887.00;2057879;69;20085;-78
2023/02/15 04:44:08;;;;;;;;;;;;;;;0.86;53.96;93884.97;2057269;69;20088;-79
2023/02/15 04:46:33;;;;;;;;;;;;;;;0.70;55.39;93885.91;2058061;69;20197;-80
2023/02/15 04:48:58;;;;;;;;;;;;;;;0.79;53.85;93885.56;2056963;69;20108;-78
2023/02/15 04:51:24;;;;;;;;;;;;;;;0.68;54.87;93888.44;2057705;69;20050;-78
2023/02/15 04:53:49;;;;;;;;;;;;;;;0.79;55.06;93882.06;2057984;69;20057;-79
2023/02/15 04:56:15;;;;;;;;;;;;;;;0.79;55.18;93890.38;2057956;69;20435;-79
2023/02/15 04:58:41;;;;;;;;;;;;;;;0.98;53.98;93893.94;2056828;69;20534;-77
2023/02/15 05:01:07;;;;;;;;;;;;;;;1.11;53.49;93885.00;2057828;69;20525;-78
2023/02/15 05:03:33;;;;;;;;;;;;;;;0.72;53.30;93881.34;2057542;69;20053;-78
2023/02/15 05:05:58;;;;;;;;;;;;;;;0.82;54.28;93881.75;2058381;69;20054;-76
2023/02/15 05:08:24;;;;;;;;;;;;;;;0.77;54.73;93886.06;2057821;69;20502;-75
2023/02/15 05:10:49;;;;;;;;;;;;;;;0.64;54.81;93883.19;2058518;69;20072;-78
2023/02/15 05:13:15;;;;;;;;;;;;;;;0.73;54.32;93884.84;2057703;69;20126;-79
2023/02/15 05:15:40;;;;;;;;;;;;;;;0.87;53.53;93888.50;2058214;69;20087;-77
2023/02/15 05:18:07;;;;;;;;;;;;;;;0.68;53.72;93889.19;2058583;69;20513;-77
2023/02/15 05:20:33;;;;;;;;;;;;;;;0.81;53.27;93893.34;2058301;69;20046;-78
2023/02/15 05:22:58;;;;;;;;;;;;;;;0.82;53.12;93887.28;2058344;69;20140;-75
2023/02/15 05:28:20;;;;;;;;;;;;;;;0.70;53.72;93889.44;2055710;69;20978;-76
2023/02/15 05:30:47;;;;;;;;;;;;;;;0.66;54.29;93891.72;2057081;69;20132;-77
2023/02/15 05:33:13;;;;;;;;;;;;;;;0.75;54.02;93891.41;2058040;69;20147;-76
2023/02/15 05:35:38;;;;;;;;;;;;;;;1.00;53.33;93897.69;2058505;69;20168;-76
2023/02/15 05:38:04;;;;;;;;;;;;;;;1.09;52.89;93887.53;2058105;69;20038;-75
2023/02/15 05:40:29;;;;;;;;;;;;;;;1.03;52.87;93890.38;2056501;69;20081;-74
2023/02/15 05:42:55;;;;;;;;;;;;;;;1.01;53.06;93892.94;2057463;69;20069;-73
2023/02/15 05:45:21;;;;;;;;;;;;;;;1.07;52.26;93890.09;2057726;69;20102;-74
2023/02/15 05:47:47;;;;;;;;;;;;;;;0.91;53.15;93891.75;2058231;69;20054;-77
2023/02/15 05:50:12;;;;;;;;;;;;;;;0.99;52.59;93895.44;2057735;69;20176;-76
2023/02/15 05:52:37;;;;;;;;;;;;;;;0.76;53.03;93895.66;2058036;69;20062;-75
2023/02/15 05:55:04;;;;;;;;;;;;;;;1.03;52.26;93898.69;2057573;69;20410;-76
2023/02/15 05:57:29;;;;;;;;;;;;;;;0.85;52.61;93902.91;2057933;69;20513;-77
2023/02/15 05:59:55;;;;;;;;;;;;;;;1.26;51.17;93899.19;2057373;69;20058;-75
2023/02/15 06:02:20;;;;;;;;;;;;;;;1.37;50.69;93899.06;2057944;69;20042;-78
2023/02/15 06:04:46;;;;;;;;;;;;;;;1.30;50.79;93908.00;2058256;69;20222;-78
2023/02/15 06:07:11;;;;;;;;;;;;;;;1.36;50.50;93900.34;2055833;69;20053;-78
2023/02/15 06:09:37;;;;;;;;;;;;;;;1.19;51.11;93905.31;2057444;69;20060;-78
2023/02/15 06:12:02;;;;;;;;;;;;;;;0.71;52.74;93912.34;2058185;69;20421;-74
2023/02/15 06:14:27;;;;;;;;;;;;;;;0.93;51.74;93906.59;2057187;69;20097;-74
2023/02/15 06:16:53;;;;;;;;;;;;;;;0.98;52.36;93910.59;2057123;69;20042;-77
2023/02/15 06:19:22;;;;;;;;;;;;;;;0.94;52.47;93907.34;2057021;69;20526;-77
2023/02/15 06:21:53;;;;;;;;;;;;;;;1.02;51.98;93911.06;2057696;69;20155;-76
2023/02/15 06:24:19;;;;;;;;;;;;;;;1.06;52.37;93905.97;2054807;69;20153;-78
2023/02/15 06:26:44;;;;;;;;;;;;;;;0.92;52.69;93918.22;2057786;69;20144;-78
2023/02/15 06:29:10;;;;;;;;;;;;;;;0.94;53.05;93899.03;2057260;69;20107;-79
2023/02/15 06:31:35;;;;;;;;;;;;;;;0.95;52.99;93906.06;2056952;69;20046;-78
2023/02/15 06:34:01;;;;;;;;;;;;;;;1.02;52.69;93911.06;2056925;69;20415;-78
2023/02/15 06:36:28;;;;;;;;;;;;;;;0.95;53.09;93908.84;2058188;69;20066;-79
2023/02/15 06:38:54;;;;;;;;;;;;;;;0.76;52.98;93908.78;2057636;69;20050;-79
2023/02/15 06:41:19;;;;;;;;;;;;;;;0.96;52.94;93911.13;2057958;69;20054;-78
2023/02/15 06:43:45;;;;;;;;;;;;;;;0.88;53.02;93917.75;2058333;69;20141;-78
2023/02/15 06:46:10;;;;;;;;;;;;;;;0.97;52.89;93920.19;2057983;69;20143;-78
2023/02/15 06:48:36;;;;;;;;;;;;;;;1.42;50.36;93911.38;2057539;69;20518;-75
2023/02/15 06:51:01;;;;;;;;;;;;;;;1.33;51.29;93926.38;2056175;69;20057;-80
2023/02/15 06:53:27;;;;;;;;;;;;;;;1.27;51.00;93915.31;2057604;69;20065;-76
2023/02/15 06:55:52;;;;;;;;;;;;;;;1.41;51.51;93923.75;2056965;69;20054;-78
2023/02/15 06:58:18;;;;;;;;;;;;;;;1.46;50.42;93920.91;2057515;69;20196;-79
2023/02/15 07:00:43;;;;;;;;;;;;;;;1.45;50.23;93916.63;2057396;69;20046;-80
2023/02/15 07:03:09;;;;;;;;;;;;;;;1.38;51.18;93920.00;2057640;69;20042;-75
2023/02/15 07:05:35;;;;;;;;;;;;;;;1.34;50.67;93925.09;2057603;69;20085;-75
2023/02/15 07:08:00;;;;;;;;;;;;;;;1.31;51.40;93915.03;2055625;69;20516;-75
2023/02/15 07:10:26;;;;;;;;;;;;;;;1.32;51.61;93918.56;2056817;69;20089;-77
2023/02/15 07:12:53;;;;;;;;;;;;;;;1.24;52.17;93921.19;2057332;69;20050;-77
2023/02/15 07:15:22;;;;;;;;;;;;;;;1.34;51.87;93919.56;2057521;69;20046;-79
2023/02/15 07:17:48;;;;;;;;;;;;;;;1.16;52.57;93923.78;2058250;69;20116;-77
2023/02/15 07:20:18;;;;;;;;;;;;;;;1.21;52.79;93922.22;2056993;69;20153;-73
2023/02/15 07:22:44;;;;;;;;;;;;;;;1.26;52.40;93919.38;2055979;69;20053;-77
2023/02/15 07:25:11;;;;;;;;;;;;;;;1.11;52.88;93913.50;2056297;69;20134;-77
2023/02/15 07:27:36;;;;;;;;;;;;;;;1.32;52.35;93913.75;2056889;69;20084;-80
2023/02/15 07:30:02;;;;;;;;;;;;;;;1.40;52.34;93917.44;2055352;69;20441;-75
2023/02/15 07:32:31;;;;;;;;;;;;;;;0.89;53.15;93922.78;2056687;69;20429;-77
2023/02/15 07:34:57;;;;;;;;;;;;;;;1.23;52.33;93909.31;2055430;69;20085;-77
2023/02/15 07:37:31;;;;;;;;;;;;;;;1.19;52.21;93908.88;2055660;69;20053;-78
2023/02/15 07:39:57;;;;;;;;;;;;;;;1.37;51.76;93912.19;2056762;69;20148;-76
2023/02/15 07:42:22;;;;;;;;;;;;;;;1.36;52.37;93900.34;2057479;69;20093;-80
2023/02/15 07:44:48;;;;;;;;;;;;;;;1.09;53.08;93904.91;2057584;69;20065;-80
2023/02/15 07:47:13;;;;;;;;;;;;;;;1.13;53.11;93910.19;2057167;69;20050;-79
2023/02/15 07:49:38;;;;;;;;;;;;;;;1.27;52.42;93897.94;2058611;69;20082;-80
2023/02/15 07:52:04;;;;;;;;;;;;;;;1.41;51.63;93905.06;2058016;69;20050;-80
2023/02/15 07:54:29;;;;;;;;;;;;;;;1.50;51.64;93899.16;2058483;69;20076;-79
2023/02/15 07:56:55;;;;;;;;;;;;;;;1.63;51.46;93895.72;2058463;69;20137;-81
2023/02/15 07:59:20;;;;;;;;;;;;;;;1.77;50.44;93891.75;2058511;69;20482;-80
2023/02/15 08:01:45;;;;;;;;;;;;;;;1.66;51.63;93891.91;2058421;69;20161;-79
2023/02/15 08:04:11;;;;;;;;;;;;;;;1.55;51.74;93897.59;2058356;69;20498;-79
2023/02/15 08:06:37;;;;;;;;;;;;;;;1.58;51.63;93895.81;2058513;69;20061;-79
2023/02/15 08:09:06;;;;;;;;;;;;;;;1.35;52.28;93904.41;2058451;69;20085;-79
2023/02/15 08:11:33;;;;;;;;;;;;;;;1.28;53.25;93888.31;2058429;69;20134;-81
2023/02/15 08:14:02;;;;;;;;;;;;;;;1.35;52.83;93890.53;2058360;69;20112;-79
2023/02/15 08:16:27;;;;;;;;;;;;;;;1.66;51.83;93891.91;2058328;69;20058;-79
2023/02/15 08:18:53;;;;;;;;;;;;;;;1.78;51.27;93901.59;2058400;69;20112;-79
2023/02/15 08:21:19;;;;;;;;;;;;;;;1.95;50.32;93889.53;2058329;69;20042;-80
2023/02/15 08:23:45;;;;;;;;;;;;;;;1.99;50.38;93884.41;2058449;69;20054;-78
2023/02/15 08:26:11;;;;;;;;;;;;;;;1.98;50.18;93883.66;2058338;69;20493;-79
2023/02/15 08:28:36;;;;;;;;;;;;;;;2.03;51.11;93880.06;2058278;69;20202;-79
2023/02/15 08:31:08;;;;;;;;;;;;;;;1.86;51.47;93878.78;2058173;69;20517;-79
2023/02/15 08:33:34;;;;;;;;;;;;;;;2.02;51.09;93878.56;2058215;69;20058;-79
2023/02/15 08:36:19;;;;;;;;;;;;;;;2.10;51.09;93875.91;2058446;69;20115;-80
2023/02/15 08:38:45;;;;;;;;;;;;;;;2.76;51.27;93878.19;2058375;69;20058;-80
2023/02/15 08:41:16;;;;;;;;;;;;;;;3.24;51.74;93879.84;2058742;69;20056;-78
2023/02/15 08:43:42;;;;;;;;;;;;;;;3.64;51.16;93877.03;2058920;69;20058;-79
2023/02/15 08:46:08;;;;;;;;;;;;;;;3.93;48.75;93882.78;2058868;69;20469;-80
2023/02/15 08:48:34;;;;;;;;;;;;;;;4.47;49.57;93875.75;2059215;69;20060;-78
2023/02/15 08:51:04;;;;;;;;;;;;;;;4.77;47.74;93875.28;2058906;69;20046;-78
2023/02/15 08:53:29;;;;;;;;;;;;;;;5.42;47.79;93872.59;2059497;69;20482;-76
2023/02/15 08:55:55;;;;;;;;;;;;;;;5.63;45.29;93869.72;2058815;69;20089;-77
2023/02/15 08:58:24;;;;;;;;;;;;;;;6.27;44.93;93866.09;2058740;69;20053;-77
2023/02/15 09:00:50;;;;;;;;;;;;;;;6.69;44.01;93865.81;2058817;69;20050;-77
2023/02/15 09:03:15;;;;;;;;;;;;;;;7.00;44.29;93864.53;2058923;69;20053;-78
2023/02/15 09:05:40;;;;;;;;;;;;;;;7.51;42.98;93865.63;2058880;69;20046;-78
2023/02/15 09:08:06;;;;;;;;;;;;;;;7.86;42.92;93863.88;2058974;69;20065;-74
2023/02/15 09:10:32;;;;;;;;;;;;;;;7.82;41.33;93861.44;2058097;69;20046;-78
2023/02/15 09:12:57;;;;;;;;;;;;;;;8.38;40.79;93861.44;2058715;69;20052;-81
2023/02/15 09:15:22;;;;;;;;;;;;;;;8.34;38.97;93859.00;2058884;69;20045;-78
2023/02/15 09:17:48;;;;;;;;;;;;;;;8.80;38.73;93858.03;2058744;69;20116;-78
2023/02/15 09:20:13;;;;;;;;;;;;;;;9.33;39.28;93845.63;2058776;69;20411;-79
2023/02/15 09:22:39;;;;;;;;;;;;;;;9.66;38.80;93849.03;2058679;69;20412;-78
2023/02/15 09:25:04;;;;;;;;;;;;;;;10.00;38.82;93845.50;2058775;69;20082;-79
2023/02/15 09:27:30;;;;;;;;;;;;;;;10.13;37.60;93842.34;2058704;69;20116;-80
2023/02/15 09:29:55;;;;;;;;;;;;;;;10.32;37.17;93849.47;2058682;69;20474;-80
2023/02/15 09:32:21;;;;;;;;;;;;;;;10.46;37.54;93847.03;2058568;69;20521;-80
2023/02/15 09:34:47;;;;;;;;;;;;;;;11.14;36.15;93845.31;2060085;69;20081;-79
2023/02/15 09:37:13;;;;;;;;;;;;;;;11.35;35.05;93850.41;2061894;69;20135;-77
2023/02/15 09:39:40;;;;;;;;;;;;;;;11.96;34.74;93852.19;2061766;69;20060;-76
2023/02/15 09:42:15;;;;;;;;;;;;;;;12.53;32.95;93853.50;2061929;69;20085;-75
2023/02/15 09:45:04;;;;;;;;;;;;;;;12.88;32.45;93853.88;2061941;69;20057;-75
2023/02/15 09:47:36;;;;;;;;;;;;;;;13.23;30.34;93847.81;2060888;69;20050;-76
2023/02/15 09:50:24;;;;;;;;;;;;;;;13.79;29.71;93853.06;2062105;69;20115;-77
2023/02/15 09:52:49;;;;;;;;;;;;;;;13.21;30.36;93853.31;2061476;69;20528;-77
2023/02/15 09:55:15;;;;;;;;;;;;;;;13.23;28.75;93845.00;2061864;69;20054;-78
2023/02/15 09:57:40;;;;;;;;;;;;;;;13.55;27.85;93838.00;2061929;69;20049;-78
2023/02/15 10:00:23;;;;;;;;;;;;;;;14.02;28.05;93838.31;2061873;69;20165;-77
2023/02/15 10:03:02;;;;;;;;;;;;;;;13.61;27.14;93840.50;2061947;69;20050;-78
2023/02/15 10:05:27;;;;;;;;;;;;;;;14.60;27.08;93832.16;2061940;69;20049;-79
2023/02/15 10:08:08;;;;;;;;;;;;;;;14.77;27.63;93833.19;2061864;69;20145;-76
2023/02/15 10:10:57;;;;;;;;;;;;;;;14.10;26.51;93829.59;2061754;69;20089;-76
2023/02/15 10:13:27;;;;;;;;;;;;;;;14.05;25.70;93825.00;2061942;69;20049;-77
2023/02/15 10:16:01;;;;;;;;;;;;;;;14.73;25.44;93819.50;2061948;69;20054;-77
2023/02/15 10:18:45;;;;;;;;;;;;;;;16.19;25.94;93821.22;2061918;69;20077;-78
2023/02/15 10:21:27;;;;;;;;;;;;;;;15.38;23.50;93814.28;2061919;69;20046;-78
2023/02/15 10:24:11;;;;;;;;;;;;;;;16.14;22.81;93813.84;2061882;69;20048;-76
2023/02/15 10:26:42;;;;;;;;;;;;;;;16.80;23.10;93806.91;2061939;69;20172;-77
2023/02/15 10:29:07;;;;;;;;;;;;;;;17.72;22.87;93801.88;2062101;69;20084;-76
2023/02/15 10:31:37;;;;;;;;;;;;;;;17.57;21.44;93802.50;2061830;69;20045;-74
2023/02/15 10:34:03;;;;;;;;;;;;;;;17.58;22.09;93803.25;2061842;69;20137;-75
2023/02/15 10:36:43;;;;;;;;;;;;;;;17.72;21.87;93799.03;2061899;69;20052;-74
2023/02/15 10:39:09;;;;;;;;;;;;;;;18.06;21.70;93798.63;2061947;69;20056;-77
2023/02/15 10:41:36;;;;;;;;;;;;;;;18.06;21.33;93792.91;2061763;69;20066;-78
2023/02/15 10:44:10;;;;;;;;;;;;;;;18.08;21.43;93785.19;2061927;69;20042;-77
2023/02/15 10:46:35;;;;;;;;;;;;;;;20.23;20.44;93790.13;2061879;69;20133;-77
2023/02/15 10:49:12;;;;;;;;;;;;;;;21.50;19.03;93790.94;2061761;69;20140;-76
2023/02/15 10:51:56;;;;;;;;;;;;;;;20.75;19.12;93785.84;2061826;69;20050;-77
2023/02/15 10:54:21;;;;;;;;;;;;;;;20.35;19.04;93787.78;2061185;69;20143;-77
2023/02/15 10:57:07;;;;;;;;;;;;;;;21.22;19.15;93781.25;2061814;69;20093;-79
2023/02/15 10:59:32;;;;;;;;;;;;;;;22.72;18.81;93785.13;2060444;69;20058;-78
2023/02/15 11:02:10;;;;;;;;;;;;;;;22.79;18.09;93776.06;2061695;69;20111;-76
2023/02/15 11:05:14;;;;;;;;;;;;;;;22.55;17.68;93772.41;2061805;69;20144;-75
2023/02/15 11:07:41;;;;;;;;;;;;;;;23.68;16.53;93768.03;2054423;69;20088;-77
2023/02/15 11:10:25;;;;;;;;;;;;;;;23.68;16.56;93773.78;2054275;69;20101;-78
2023/02/15 11:12:51;;;;;;;;;;;;;;;24.33;15.90;93755.44;2058775;69;20644;-78
2023/02/15 11:15:38;;;;;;;;;;;;;;;24.15;16.08;93752.81;2061788;69;20168;-78
2023/02/15 11:18:25;;;;;;;;;;;;;;;26.90;14.89;93754.47;2061997;69;20046;-78
2023/02/15 11:20:56;;;;;;;;;;;;;;;28.22;13.40;93761.38;2061727;69;20120;-78
2023/02/15 11:23:23;;;;;;;;;;;;;;;30.47;13.20;93749.97;2061683;69;20441;-79
2023/02/15 11:26:15;;;;;;;;;;;;;;;30.86;12.72;93750.03;2061085;69;20493;-79
2023/02/15 11:28:47;;;;;;;;;;;;;;;31.01;12.41;93744.97;2058744;69;20064;-77
2023/02/15 11:31:16;;;;;;;;;;;;;;;30.89;12.46;93736.97;2062348;69;20137;-77
2023/02/15 11:33:44;;;;;;;;;;;;;;;31.45;11.45;93734.78;2061692;69;20049;-77
2023/02/15 11:36:14;;;;;;;;;;;;;;;29.44;12.13;93724.06;2061753;69;20057;-77
2023/02/15 11:38:43;;;;;;;;;;;;;;;32.91;11.67;93736.38;2061891;69;20061;-78
2023/02/15 11:41:13;;;;;;;;;;;;;;;32.49;11.67;93728.63;2061740;69;20417;-77
2023/02/15 11:43:44;;;;;;;;;;;;;;;32.83;10.69;93718.91;2061849;69;20057;-78
2023/02/15 11:46:11;;;;;;;;;;;;;;;32.88;12.04;93726.16;2061857;69;20143;-78
2023/02/15 11:48:36;;;;;;;;;;;;;;;33.16;11.22;93713.56;2061732;69;20490;-77
2023/02/15 11:51:02;;;;;;;;;;;;;;;34.50;10.50;93707.75;2061748;69;20052;-76
2023/02/15 11:53:31;;;;;;;;;;;;;;;35.03;9.55;93710.63;2061684;69;20072;-75
2023/02/15 11:55:57;;;;;;;;;;;;;;;33.34;10.22;93695.91;2061612;69;20078;-79
2023/02/15 11:58:22;;;;;;;;;;;;;;;34.70;9.49;93698.69;2061765;69;20385;-79
2023/02/15 12:00:49;;;;;;;;;;;;;;;36.30;9.94;93699.56;2061799;69;20050;-79
2023/02/15 12:03:28;;;;;;;;;;;;;;;33.36;9.64;93686.41;2060185;69;20474;-80
2023/02/15 12:05:56;;;;;;;;;;;;;;;35.57;9.88;93679.00;2056230;69;20047;-80
2023/02/15 12:08:21;;;;;;;;;;;;;;;34.00;9.78;93674.81;2056361;69;20046;-79
2023/02/15 12:10:53;;;;;;;;;;;;;;;35.89;8.80;93679.84;2056489;69;20500;-80
2023/02/15 12:13:20;;;;;;;;;;;;;;;34.64;9.58;93676.13;2055439;69;20090;-82
2023/02/15 12:15:46;;;;;;;;;;;;;;;36.12;9.50;93677.22;2055525;69;20109;-81
2023/02/15 12:18:32;;;;;;;;;;;;;;;35.92;9.10;93672.47;2055544;69;20498;-81
2023/02/15 12:20:59;;;;;;;;;;;;;;;36.51;9.09;93665.38;2054685;69;20117;-80
2023/02/15 12:23:27;;;;;;;;;;;;;;;36.64;8.97;93669.50;2055778;69;20054;-81
2023/02/15 12:25:55;;;;;;;;;;;;;;;36.63;8.42;93655.59;2056171;69;20050;-81
2023/02/15 12:28:23;;;;;;;;;;;;;;;34.08;9.61;93648.41;2057045;69;20088;-81
2023/02/15 12:30:50;;;;;;;;;;;;;;;35.96;8.97;93648.97;2056802;69;20046;-79
2023/02/15 12:33:28;;;;;;;;;;;;;;;35.42;8.54;93641.94;2056772;69;20042;-80
2023/02/15 12:36:01;;;;;;;;;;;;;;;32.64;10.09;93630.88;2056816;69;20176;-81
2023/02/15 12:38:28;;;;;;;;;;;;;;;34.26;9.68;93627.69;2056786;69;20101;-80
2023/02/15 12:41:01;;;;;;;;;;;;;;;36.13;9.23;93631.78;2056718;69;20054;-77
2023/02/15 12:43:32;;;;;;;;;;;;;;;34.42;9.12;93626.03;2055936;69;20058;-79
2023/02/15 12:46:18;;;;;;;;;;;;;;;36.20;9.44;93621.38;2057903;69;20085;-80
2023/02/15 12:48:43;;;;;;;;;;;;;;;35.62;8.29;93618.88;2058456;69;20058;-78
2023/02/15 12:51:13;;;;;;;;;;;;;;;33.18;9.08;93610.75;2057879;69;20398;-80
2023/02/15 12:53:39;;;;;;;;;;;;;;;35.26;8.95;93611.50;2058003;69;20061;-80
2023/02/15 12:56:05;;;;;;;;;;;;;;;35.14;9.83;93606.59;2057484;69;20141;-79
2023/02/15 12:58:31;;;;;;;;;;;;;;;33.75;9.17;93607.91;2058775;69;20506;-79
2023/02/15 13:01:09;;;;;;;;;;;;;;;35.03;11.02;93605.31;2057700;69;20066;-80
2023/02/15 13:03:39;;;;;;;;;;;;;;;34.44;9.17;93596.75;2054452;70;20046;-78
2023/02/15 13:06:07;;;;;;;;;;;;;;;32.21;9.47;93589.63;2055066;69;20093;-77
2023/02/15 13:08:34;;;;;;;;;;;;;;;32.33;10.34;93586.66;2055043;69;20042;-78
2023/02/15 13:11:03;;;;;;;;;;;;;;;34.48;11.07;93579.19;2054912;69;20498;-78
2023/02/15 13:13:30;;;;;;;;;;;;;;;33.05;9.69;93578.06;2058796;69;20130;-77
2023/02/15 13:15:58;;;;;;;;;;;;;;;30.36;10.42;93566.22;2058208;69;20137;-79
2023/02/15 13:18:29;;;;;;;;;;;;;;;28.37;11.51;93551.66;2058686;69;20471;-78
2023/02/15 13:20:55;;;;;;;;;;;;;;;29.88;10.60;93563.97;2058509;69;20046;-79
2023/02/15 13:23:29;;;;;;;;;;;;;;;32.57;10.24;93553.69;2058785;69;20098;-78
2023/02/15 13:25:57;;;;;;;;;;;;;;;33.64;10.16;93554.78;2058445;69;20471;-78
2023/02/15 13:28:25;;;;;;;;;;;;;;;32.61;9.93;93542.00;2058692;69;20086;-78